Time;durP1;ratioP1;P1;durP2;ratioP2;P2;SDS_P1;SDS_P2;PMS_P1;PMS_P2;Temp;Humidity;BMP_temperature;BMP_pressure;BME280_temperature;BME280_humidity;BME280_pressure;Samples;Min_cycle;Max_cycle;Signal;HPM_P1;HPM_P2
2021/12/09 00:00:28;;;;;;;52.80;38.40;;;;;;;-2.89;76.72;99763.44;108228;1284;22006;-77
2021/12/09 00:03:07;;;;;;;86.80;48.40;;;;;;;-2.95;76.63;99757.60;108324;1284;24323;-75
2021/12/09 00:05:38;;;;;;;59.00;38.30;;;;;;;-2.96;76.74;99755.25;108216;1284;22016;-75
2021/12/09 00:08:08;;;;;;;59.90;42.30;;;;;;;-2.94;76.79;99758.27;108263;1285;21985;-75
2021/12/09 00:10:40;;;;;;;57.90;39.00;;;;;;;-2.94;76.72;99754.27;108538;1282;22957;-75
2021/12/09 00:13:10;;;;;;;52.60;38.00;;;;;;;-2.99;76.54;99750.95;108535;1277;22034;-76
2021/12/09 00:15:39;;;;;;;55.20;39.70;;;;;;;-3.05;76.51;99753.61;109028;1275;22054;-75
2021/12/09 00:18:09;;;;;;;53.70;40.00;;;;;;;-3.10;76.70;99749.94;108814;1277;21976;-75
2021/12/09 00:20:39;;;;;;;58.20;40.10;;;;;;;-3.13;76.68;99746.83;108911;1275;23125;-75
2021/12/09 00:23:08;;;;;;;50.20;39.70;;;;;;;-3.13;76.81;99748.06;109050;1276;22027;-75
2021/12/09 00:25:38;;;;;;;56.90;41.90;;;;;;;-3.12;76.86;99743.69;108814;1275;24865;-76
2021/12/09 00:28:08;;;;;;;59.00;40.80;;;;;;;-3.12;76.85;99742.16;108802;1276;22685;-76
2021/12/09 00:30:38;;;;;;;68.30;42.60;;;;;;;-3.10;77.02;99750.11;109084;1275;22943;-76
2021/12/09 00:33:10;;;;;;;64.50;44.40;;;;;;;-3.07;77.05;99750.43;108838;1277;22020;-76
2021/12/09 00:35:46;;;;;;;77.70;50.40;;;;;;;-3.00;77.19;99746.70;109076;1276;21982;-76
2021/12/09 00:38:24;;;;;;;78.90;49.00;;;;;;;-2.92;77.08;99752.42;108799;1275;22497;-77
2021/12/09 00:40:56;;;;;;;60.90;43.20;;;;;;;-2.91;76.95;99753.36;108834;1277;21996;-77
2021/12/09 00:43:28;;;;;;;63.50;45.70;;;;;;;-2.88;77.00;99747.49;109006;1275;21979;-75
2021/12/09 00:45:58;;;;;;;65.40;44.80;;;;;;;-2.89;76.83;99743.64;108798;1277;22023;-75
2021/12/09 00:48:28;;;;;;;71.30;48.60;;;;;;;-2.92;76.68;99739.53;109010;1275;23032;-77
2021/12/09 00:51:02;;;;;;;58.90;39.50;;;;;;;-2.95;76.76;99741.23;108803;1275;23708;-75
2021/12/09 00:53:33;;;;;;;63.60;44.90;;;;;;;-2.97;76.78;99735.73;108913;1277;21983;-75
2021/12/09 00:56:13;;;;;;;52.50;38.10;;;;;;;-2.98;76.76;99741.28;108825;1275;21977;-76
2021/12/09 00:58:45;;;;;;;54.80;41.50;;;;;;;-3.02;76.74;99733.40;108850;1275;21976;-77
2021/12/09 01:01:19;;;;;;;57.10;41.50;;;;;;;-3.04;76.84;99728.52;109049;1275;21976;-76
2021/12/09 01:03:51;;;;;;;57.80;40.90;;;;;;;-3.05;76.81;99729.11;108421;1282;22218;-76
2021/12/09 01:06:20;;;;;;;57.40;40.20;;;;;;;-3.01;77.03;99722.85;108228;1286;23697;-76
2021/12/09 01:08:50;;;;;;;59.10;41.20;;;;;;;-2.99;76.93;99722.73;108156;1288;22017;-76
2021/12/09 01:11:21;;;;;;;58.20;41.70;;;;;;;-3.02;76.78;99722.70;108167;1290;23047;-75
2021/12/09 01:13:50;;;;;;;64.90;43.50;;;;;;;-3.04;76.89;99720.27;107851;1293;23752;-75
2021/12/09 01:16:20;;;;;;;57.10;39.20;;;;;;;-3.07;76.90;99723.39;107774;1294;22424;-75
2021/12/09 01:18:52;;;;;;;73.80;45.20;;;;;;;-3.10;76.91;99714.98;107628;1293;138963;-75
2021/12/09 01:21:21;;;;;;;69.50;46.40;;;;;;;-3.13;76.90;99709.29;107613;1290;22020;-76
2021/12/09 01:23:50;;;;;;;57.80;40.80;;;;;;;-3.13;77.02;99713.76;107929;1292;23048;-76
2021/12/09 01:26:19;;;;;;;64.80;43.70;;;;;;;-3.14;77.11;99715.04;107920;1291;22006;-75
2021/12/09 01:28:57;;;;;;;55.70;40.10;;;;;;;-3.13;77.08;99700.72;108023;1285;22303;-76
2021/12/09 01:31:34;;;;;;;62.40;40.60;;;;;;;-3.11;77.23;99698.01;108347;1282;23089;-77
2021/12/09 01:34:05;;;;;;;59.10;40.90;;;;;;;-3.12;77.17;99698.41;108549;1281;21994;-76
2021/12/09 01:36:38;;;;;;;63.80;46.20;;;;;;;-3.13;77.25;99696.35;108420;1282;23045;-76
2021/12/09 01:39:09;;;;;;;66.10;48.70;;;;;;;-3.13;77.30;99700.69;108498;1282;22527;-76
2021/12/09 01:41:38;;;;;;;83.10;55.40;;;;;;;-3.12;77.31;99696.50;108588;1281;21996;-75
2021/12/09 01:44:11;;;;;;;66.10;45.40;;;;;;;-3.10;77.45;99702.72;108034;1288;23082;-75
2021/12/09 01:46:47;;;;;;;67.40;46.80;;;;;;;-3.11;77.34;99695.88;108287;1288;21996;-75
2021/12/09 01:49:18;;;;;;;66.00;48.40;;;;;;;-3.09;77.36;99699.05;108466;1282;23055;-76
2021/12/09 01:51:47;;;;;;;65.00;45.00;;;;;;;-3.04;77.45;99699.27;108479;1282;21980;-75
2021/12/09 01:54:23;;;;;;;64.40;44.50;;;;;;;-3.03;77.47;99689.58;108441;1282;23723;-75
2021/12/09 01:56:52;;;;;;;59.80;43.70;;;;;;;-3.01;77.48;99683.70;108134;1288;23208;-74
2021/12/09 01:59:21;;;;;;;56.70;40.80;;;;;;;-2.97;77.47;99679.03;108206;1288;23770;-76
2021/12/09 02:01:51;;;;;;;60.80;41.00;;;;;;;-2.98;77.42;99679.09;108204;1282;22218;-77
2021/12/09 02:04:31;;;;;;;56.30;40.70;;;;;;;-2.98;77.42;99673.68;108018;1288;22051;-75
2021/12/09 02:07:05;;;;;;;70.10;45.30;;;;;;;-2.96;77.41;99670.66;107965;1288;22045;-77
2021/12/09 02:09:35;;;;;;;63.60;44.50;;;;;;;-2.97;77.39;99669.48;108156;1288;23043;-76
2021/12/09 02:12:05;;;;;;;61.70;45.60;;;;;;;-2.97;77.45;99669.48;108334;1286;22102;-76
2021/12/09 02:14:40;;;;;;;68.10;44.00;;;;;;;-2.97;77.41;99666.58;108344;1282;23056;-76
2021/12/09 02:17:13;;;;;;;61.90;42.10;;;;;;;-2.99;77.44;99664.64;108518;1282;22059;-76
2021/12/09 02:19:44;;;;;;;63.40;44.40;;;;;;;-3.00;77.48;99658.36;108622;1281;23617;-76
2021/12/09 02:22:15;;;;;;;61.40;42.90;;;;;;;-3.02;77.50;99658.45;108633;1275;21987;-76
2021/12/09 02:24:44;;;;;;;60.50;41.90;;;;;;;-3.02;77.50;99657.64;108857;1275;21970;-76
2021/12/09 02:27:13;;;;;;;60.50;41.10;;;;;;;-3.05;77.53;99662.99;108897;1276;22009;-76
2021/12/09 02:29:43;;;;;;;58.20;38.70;;;;;;;-3.09;77.49;99664.27;108935;1275;23026;-76
2021/12/09 02:32:12;;;;;;;58.30;39.60;;;;;;;-3.13;77.53;99661.25;108909;1276;24299;-76
2021/12/09 02:34:44;;;;;;;58.10;38.50;;;;;;;-3.13;77.66;99666.45;108817;1275;22026;-76
2021/12/09 02:37:14;;;;;;;57.60;39.90;;;;;;;-3.15;77.68;99666.35;108997;1276;21976;-76
2021/12/09 02:39:45;;;;;;;52.70;37.00;;;;;;;-3.16;77.72;99662.66;108963;1275;21970;-75
2021/12/09 02:42:16;;;;;;;54.40;38.40;;;;;;;-3.15;77.87;99661.92;108716;1276;22036;-75
2021/12/09 02:44:46;;;;;;;51.70;36.70;;;;;;;-3.16;77.84;99664.89;108510;1281;21992;-76
2021/12/09 02:47:15;;;;;;;57.40;37.70;;;;;;;-3.16;78.00;99664.01;108695;1281;21995;-76
2021/12/09 02:49:50;;;;;;;61.00;39.10;;;;;;;-3.12;78.06;99674.46;108674;1281;22765;-77
2021/12/09 02:52:21;;;;;;;56.20;39.70;;;;;;;-3.08;78.10;99669.91;108375;1285;22104;-76
2021/12/09 02:54:51;;;;;;;64.70;45.00;;;;;;;-3.07;77.97;99670.65;108314;1285;21979;-76
2021/12/09 02:57:20;;;;;;;58.10;43.10;;;;;;;-3.07;78.04;99674.31;108236;1285;22027;-76
2021/12/09 02:59:50;;;;;;;59.80;42.30;;;;;;;-3.04;77.94;99675.66;108337;1285;22947;-76
2021/12/09 03:02:20;;;;;;;63.20;43.50;;;;;;;-2.99;78.07;99678.94;107868;1290;22772;-76
2021/12/09 03:04:58;;;;;;;61.10;45.20;;;;;;;-2.94;78.05;99670.84;108020;1290;21988;-76
2021/12/09 03:07:36;;;;;;;62.80;42.70;;;;;;;-2.89;77.97;99679.02;107962;1290;21996;-76
2021/12/09 03:10:21;;;;;;;53.80;38.30;;;;;;;-2.89;77.98;99677.10;108227;1287;23781;-76
2021/12/09 03:12:58;;;;;;;56.20;40.90;;;;;;;-2.90;78.00;99676.80;108192;1285;22024;-75
2021/12/09 03:15:27;;;;;;;65.40;44.30;;;;;;;-2.89;77.88;99678.49;108019;1290;23100;-76
2021/12/09 03:17:57;;;;;;;58.90;41.70;;;;;;;-2.88;77.84;99668.80;107915;1289;22032;-76
2021/12/09 03:20:27;;;;;;;55.30;37.40;;;;;;;-2.90;77.75;99666.48;108087;1285;21994;-76
2021/12/09 03:22:56;;;;;;;56.80;41.50;;;;;;;-2.93;77.79;99667.88;108284;1285;22755;-77
2021/12/09 03:25:25;;;;;;;69.30;44.30;;;;;;;-2.90;77.86;99668.06;108397;1284;23666;-77
2021/12/09 03:27:55;;;;;;;58.50;40.30;;;;;;;-2.87;77.92;99669.91;108298;1285;22029;-76
2021/12/09 03:30:28;;;;;;;65.40;43.90;;;;;;;-2.85;77.95;99683.38;108042;1290;23605;-76
2021/12/09 03:32:57;;;;;;;65.10;42.30;;;;;;;-2.84;77.91;99676.08;108026;1285;21998;-75
2021/12/09 03:35:26;;;;;;;60.10;40.70;;;;;;;-2.79;77.99;99671.35;108383;1281;21944;-76
2021/12/09 03:37:57;;;;;;;61.80;42.80;;;;;;;-2.77;77.90;99677.19;108300;1284;22005;-76
2021/12/09 03:40:26;;;;;;;65.90;44.50;;;;;;;-2.76;77.81;99685.21;108392;1284;23710;-76
2021/12/09 03:43:00;;;;;;;59.70;42.10;;;;;;;-2.74;77.80;99682.36;108451;1282;23036;-76
2021/12/09 03:45:30;;;;;;;57.00;39.50;;;;;;;-2.73;77.83;99678.64;108436;1281;22440;-76
2021/12/09 03:47:59;;;;;;;58.10;40.20;;;;;;;-2.70;77.66;99678.66;108521;1275;22435;-76
2021/12/09 03:50:28;;;;;;;58.50;40.40;;;;;;;-2.70;77.67;99676.77;108906;1275;23701;-76
2021/12/09 03:53:01;;;;;;;62.40;43.00;;;;;;;-2.72;77.56;99681.66;108976;1275;22004;-76
2021/12/09 03:55:40;;;;;;;62.60;43.30;;;;;;;-2.75;77.57;99670.34;108599;1280;22144;-77
2021/12/09 03:58:12;;;;;;;74.30;49.20;;;;;;;-2.75;77.55;99668.66;108486;1280;24072;-77
2021/12/09 04:00:42;;;;;;;60.40;41.50;;;;;;;-2.75;77.72;99672.08;108579;1279;22085;-76
2021/12/09 04:03:12;;;;;;;66.20;43.90;;;;;;;-2.73;77.72;99670.90;108476;1280;23160;-76
2021/12/09 04:05:41;;;;;;;63.80;43.20;;;;;;;-2.73;77.55;99673.34;108684;1280;22738;-76
2021/12/09 04:08:10;;;;;;;56.20;40.70;;;;;;;-2.70;77.69;99679.34;108578;1280;22092;-76
2021/12/09 04:10:42;;;;;;;62.10;42.10;;;;;;;-2.70;77.56;99670.54;108598;1280;22155;-76
2021/12/09 04:13:17;;;;;;;66.40;42.30;;;;;;;-2.71;77.52;99672.16;108689;1275;23564;-75
2021/12/09 04:15:47;;;;;;;;;;;;;;;-2.72;77.57;99668.27;108853;1276;22003;-75
2021/12/09 04:18:17;;;;;;;60.90;40.60;;;;;;;-2.78;77.59;99670.92;109006;1275;24148;-76
2021/12/09 04:21:03;;;;;;;59.30;37.70;;;;;;;-2.78;77.63;99673.45;108860;1275;21983;-76
2021/12/09 04:23:34;;;;;;;67.70;43.70;;;;;;;-2.78;77.48;99677.77;109051;1275;21991;-76
2021/12/09 04:26:06;;;;;;;57.40;40.20;;;;;;;-2.74;77.75;99684.23;109063;1276;23679;-76
2021/12/09 04:28:38;;;;;;;59.50;42.10;;;;;;;-2.73;77.54;99683.45;108398;1283;23887;-76
2021/12/09 04:31:09;;;;;;;67.70;41.40;;;;;;;-2.71;77.60;99684.02;108428;1283;21997;-76
2021/12/09 04:33:38;;;;;;;59.00;41.50;;;;;;;-2.69;77.53;99691.00;108381;1283;22010;-77
2021/12/09 04:36:10;;;;;;;63.50;43.10;;;;;;;-2.66;77.71;99692.19;108413;1283;23715;-80
2021/12/09 04:38:57;;;;;;;63.00;44.00;;;;;;;-2.63;77.57;99690.23;108374;1283;22932;-77
2021/12/09 04:41:54;;;;;;;63.30;44.10;;;;;;;-2.62;77.49;99691.02;108337;1286;21992;-76
2021/12/09 04:44:23;;;;;;;69.30;47.20;;;;;;;-2.62;77.49;99692.94;108195;1288;21994;-76
2021/12/09 04:46:52;;;;;;;61.00;42.60;;;;;;;-2.60;77.55;99688.33;108458;1282;22007;-75
2021/12/09 04:49:23;;;;;;;68.40;44.20;;;;;;;-2.60;77.39;99682.98;108527;1282;22004;-76
2021/12/09 04:51:54;;;;;;;61.00;43.90;;;;;;;-2.61;77.35;99680.97;108635;1282;21996;-76
2021/12/09 04:54:41;;;;;;;69.90;46.30;;;;;;;-2.62;77.43;99681.18;108518;1285;23065;-76
2021/12/09 04:57:18;;;;;;;66.10;45.50;;;;;;;-2.58;77.46;99668.41;107927;1291;22032;-76
2021/12/09 04:59:51;;;;;;;65.30;45.20;;;;;;;-2.57;77.39;99661.42;107939;1288;22039;-77
2021/12/09 05:02:46;;;;;;;60.90;45.40;;;;;;;-2.62;77.36;99677.57;108332;1283;21992;-76
2021/12/09 05:05:15;;;;;;;73.50;50.60;;;;;;;-2.66;77.35;99683.55;108263;1286;21986;-75
2021/12/09 05:07:52;;;;;;;77.80;50.70;;;;;;;-2.65;77.42;99690.05;108009;1288;22003;-76
2021/12/09 05:10:21;;;;;;;81.30;48.20;;;;;;;-2.64;77.43;99692.55;107975;1290;23050;-76
2021/12/09 05:12:51;;;;;;;75.90;45.90;;;;;;;-2.62;77.59;99688.61;108098;1287;21995;-76
2021/12/09 05:15:22;;;;;;;68.00;46.50;;;;;;;-2.58;77.58;99681.67;108261;1287;23023;-77
2021/12/09 05:17:53;;;;;;;59.40;42.90;;;;;;;-2.52;77.64;99679.84;108244;1287;23583;-75
2021/12/09 05:20:25;;;;;;;71.40;46.40;;;;;;;-2.50;77.52;99677.52;108223;1286;22511;-76
2021/12/09 05:23:13;;;;;;;65.60;47.60;;;;;;;-2.50;77.49;99681.66;108448;1281;23577;-75
2021/12/09 05:25:45;;;;;;;71.30;49.40;;;;;;;-2.49;77.46;99687.10;108545;1277;21989;-75
2021/12/09 05:28:16;;;;;;;68.80;47.70;;;;;;;-2.48;77.59;99695.77;108777;1275;23039;-76
2021/12/09 05:33:41;;;;;;;67.80;45.60;;;;;;;-2.38;77.47;99698.91;109083;1275;23026;-76
2021/12/09 05:36:13;;;;;;;71.10;49.30;;;;;;;-2.38;77.36;99707.20;109140;1275;22007;-76
2021/12/09 05:39:07;;;;;;;68.90;48.20;;;;;;;-2.35;77.38;99703.40;109038;1275;23106;-76
2021/12/09 05:41:53;;;;;;;68.20;44.10;;;;;;;-2.32;77.39;99691.13;109085;1275;21992;-76
2021/12/09 05:44:27;;;;;;;67.20;45.20;;;;;;;-2.32;77.32;99695.14;108814;1277;21986;-75
2021/12/09 05:47:19;;;;;;;66.10;45.10;;;;;;;-2.41;77.08;99691.52;108984;1273;22004;-75
2021/12/09 05:50:38;;;;;;;66.90;43.90;;;;;;;-2.49;77.19;99694.35;109031;1275;21975;-75
2021/12/09 05:53:09;;;;;;;70.50;45.30;;;;;;;-2.53;77.31;99699.05;108922;1275;23592;-76
2021/12/09 05:56:14;;;;;;;;;;;;;;;;;;;;;
2021/12/09 05:59:07;;;;;;;65.90;45.40;;;;;;;-2.51;77.48;99711.33;108817;1275;23755;-75
2021/12/09 06:01:41;;;;;;;67.30;48.30;;;;;;;-2.48;77.53;99710.97;108842;1275;22049;-75
2021/12/09 06:04:16;;;;;;;70.60;48.00;;;;;;;-2.46;77.46;99704.46;108931;1275;22433;-74
2021/12/09 06:06:51;;;;;;;67.60;45.80;;;;;;;-2.47;77.30;99697.98;108813;1275;21979;-75
2021/12/09 06:09:26;;;;;;;72.90;50.10;;;;;;;-2.46;77.39;99701.71;109109;1274;22051;-75
2021/12/09 06:12:11;;;;;;;68.80;49.70;;;;;;;-2.43;77.41;99709.43;109079;1275;22194;-76
2021/12/09 06:14:43;;;;;;;72.40;51.50;;;;;;;-2.40;77.42;99709.78;109091;1275;21971;-75
2021/12/09 06:17:14;;;;;;;62.30;45.10;;;;;;;-2.39;77.44;99711.41;108910;1275;23570;-77
2021/12/09 06:19:46;;;;;;;68.00;47.00;;;;;;;-2.39;77.30;99708.64;108917;1275;23023;-75
2021/12/09 06:22:18;;;;;;;65.90;49.40;;;;;;;-2.41;77.24;99709.12;108965;1275;23391;-75
2021/12/09 06:24:48;;;;;;;72.70;49.00;;;;;;;-2.43;77.19;99712.23;109159;1274;23019;-76
2021/12/09 06:27:21;;;;;;;80.60;52.90;;;;;;;-2.44;77.16;99707.79;108495;1281;22098;-75
2021/12/09 06:29:51;;;;;;;80.30;51.70;;;;;;;-2.40;77.22;99703.24;108592;1282;22018;-76
2021/12/09 06:32:21;;;;;;;87.90;54.60;;;;;;;-2.40;77.23;99694.39;108529;1281;23691;-76
2021/12/09 06:34:53;;;;;;;80.60;55.90;;;;;;;-2.40;77.21;99695.96;108466;1282;23057;-76
2021/12/09 06:37:23;;;;;;;83.40;54.70;;;;;;;-2.42;77.16;99689.56;108455;1281;23082;-76
2021/12/09 06:39:52;;;;;;;87.70;57.50;;;;;;;-2.44;77.20;99691.77;108438;1277;24312;-77
2021/12/09 06:42:21;;;;;;;79.70;54.60;;;;;;;-2.43;77.20;99691.02;108434;1283;21998;-76
2021/12/09 06:44:51;;;;;;;89.60;58.10;;;;;;;-2.44;77.13;99696.26;108626;1277;23560;-77
2021/12/09 06:47:20;;;;;;;100.60;62.50;;;;;;;-2.45;77.25;99696.48;108887;1275;23637;-78
2021/12/09 06:49:50;;;;;;;91.30;59.40;;;;;;;-2.45;77.15;99693.69;108828;1276;23701;-76
2021/12/09 06:52:20;;;;;;;96.00;59.70;;;;;;;-2.44;77.19;99697.80;108856;1277;23009;-75
2021/12/09 06:54:55;;;;;;;83.80;56.90;;;;;;;-2.43;77.30;99695.48;108874;1275;23784;-76
2021/12/09 06:57:39;;;;;;;86.90;52.20;;;;;;;-2.41;77.23;99702.77;108902;1277;22477;-75
2021/12/09 07:00:46;;;;;;;89.10;57.50;;;;;;;-2.43;77.32;99710.48;108853;1277;23733;-76
2021/12/09 07:04:09;;;;;;;;;;;;;;;;;;;;;
2021/12/09 07:07:08;;;;;;;82.70;53.70;;;;;;;-2.42;77.37;99713.83;108633;1281;23032;-76
2021/12/09 07:09:38;;;;;;;83.00;51.50;;;;;;;-2.43;77.30;99720.64;108730;1280;22750;-76
2021/12/09 07:12:13;;;;;;;75.50;52.70;;;;;;;-2.40;77.39;99726.49;108708;1280;21981;-76
2021/12/09 07:14:45;;;;;;;76.00;52.80;;;;;;;-2.40;77.36;99715.31;108732;1279;22003;-77
2021/12/09 07:17:20;;;;;;;77.80;53.30;;;;;;;-2.41;77.21;99707.45;108500;1281;23117;-76
2021/12/09 07:19:52;;;;;;;87.90;56.50;;;;;;;-2.46;77.18;99714.11;108589;1281;22765;-76
2021/12/09 07:22:21;;;;;;;85.90;60.60;;;;;;;-2.43;77.34;99714.62;108576;1281;22058;-76
2021/12/09 07:24:50;;;;;;;79.40;56.40;;;;;;;-2.41;77.39;99722.06;108513;1280;22090;-75
2021/12/09 07:27:19;;;;;;;78.10;55.10;;;;;;;-2.41;77.33;99730.84;108459;1280;23022;-76
2021/12/09 07:29:49;;;;;;;78.30;53.40;;;;;;;-2.42;77.23;99737.98;108453;1284;22196;-78
2021/12/09 07:32:20;;;;;;;85.70;52.90;;;;;;;-2.39;77.41;99735.88;108421;1283;22023;-75
2021/12/09 07:34:49;;;;;;;90.10;59.00;;;;;;;-2.35;77.39;99737.59;108546;1283;23605;-77
2021/12/09 07:37:20;;;;;;;83.90;55.60;;;;;;;-2.32;77.44;99739.92;108143;1288;23045;-76
2021/12/09 07:40:07;;;;;;;88.40;56.60;;;;;;;-2.25;77.48;99739.66;107694;1294;23064;-77
2021/12/09 07:42:43;;;;;;;82.20;55.50;;;;;;;-2.25;77.21;99747.06;108056;1289;23609;-78
2021/12/09 07:45:20;;;;;;;84.80;55.80;;;;;;;-2.24;77.27;99749.62;108020;1290;22925;-77
2021/12/09 07:47:51;;;;;;;88.10;58.30;;;;;;;-2.22;77.22;99753.96;108070;1288;23599;-77
2021/12/09 07:50:28;;;;;;;84.80;57.60;;;;;;;-2.18;77.34;99748.30;108196;1287;23849;-77
2021/12/09 07:53:03;;;;;;;89.40;59.70;;;;;;;-2.12;77.32;99749.20;108085;1286;22010;-76
2021/12/09 07:55:32;;;;;;;98.90;65.80;;;;;;;-2.10;77.18;99745.77;108219;1281;22029;-76
2021/12/09 07:58:02;;;;;;;236.10;131.30;;;;;;;-2.08;77.06;99758.74;108831;1275;22948;-75
2021/12/09 08:00:34;;;;;;;119.70;73.50;;;;;;;-2.08;77.00;99752.69;108701;1278;21977;-80
2021/12/09 08:03:07;;;;;;;144.90;81.30;;;;;;;-2.04;77.06;99756.70;108741;1279;23605;-75
2021/12/09 08:05:47;;;;;;;117.60;68.30;;;;;;;-2.05;76.97;99761.43;108389;1284;22004;-76
2021/12/09 08:08:20;;;;;;;136.80;80.10;;;;;;;-2.07;76.83;99758.98;108330;1284;21999;-77
2021/12/09 08:11:03;;;;;;;189.30;99.90;;;;;;;-2.05;76.89;99762.47;108431;1284;22507;-75
2021/12/09 08:13:32;;;;;;;355.70;187.20;;;;;;;-2.02;76.90;99758.64;108422;1282;22914;-75
2021/12/09 08:16:04;;;;;;;;;;;;;;;-2.00;76.87;99754.88;108425;1284;22883;-76
2021/12/09 08:18:56;;;;;;;164.60;77.70;;;;;;;-2.06;76.90;99749.42;108473;1281;21977;-77
2021/12/09 08:21:31;;;;;;;195.60;91.40;;;;;;;-2.05;76.92;99747.48;108740;1281;21974;-75
2021/12/09 08:24:02;;;;;;;107.10;65.60;;;;;;;-2.02;77.01;99747.27;108557;1281;22998;-75
2021/12/09 08:26:32;;;;;;;90.90;59.60;;;;;;;-2.04;76.88;99751.35;108707;1281;21980;-75
2021/12/09 08:29:04;;;;;;;101.50;65.60;;;;;;;-2.04;76.84;99753.27;108687;1280;22093;-77
2021/12/09 08:31:34;;;;;;;100.80;60.70;;;;;;;-2.02;76.81;99755.70;109043;1275;21983;-77
2021/12/09 08:34:16;;;;;;;125.60;73.80;;;;;;;-2.04;76.76;99753.61;108897;1275;21987;-76
2021/12/09 08:36:55;;;;;;;113.60;71.80;;;;;;;-2.01;76.86;99754.48;108871;1275;21979;-76
2021/12/09 08:39:31;;;;;;;101.50;66.00;;;;;;;-1.96;76.97;99754.48;108888;1275;23042;-76
2021/12/09 08:42:01;;;;;;;92.40;66.20;;;;;;;-1.95;76.78;99757.66;108842;1275;21973;-76
2021/12/09 08:44:31;;;;;;;104.10;64.40;;;;;;;-1.89;76.94;99772.30;109135;1275;22052;-75
2021/12/09 08:47:00;;;;;;;83.40;57.40;;;;;;;-1.83;76.91;99774.13;108807;1277;22084;-77
2021/12/09 08:49:29;;;;;;;82.30;56.50;;;;;;;-1.82;76.65;99777.34;108663;1277;21999;-75
2021/12/09 08:52:00;;;;;;;89.90;58.30;;;;;;;-1.79;76.66;99771.10;108854;1277;24403;-76
2021/12/09 08:54:30;;;;;;;83.30;57.00;;;;;;;-1.76;76.67;99765.22;108741;1278;23704;-76
2021/12/09 08:56:59;;;;;;;87.10;58.60;;;;;;;-1.73;76.63;99766.23;109006;1277;21999;-76
2021/12/09 08:59:28;;;;;;;79.60;57.90;;;;;;;-1.73;76.58;99760.84;108823;1277;22736;-76
2021/12/09 09:02:08;;;;;;;79.70;57.70;;;;;;;-1.72;76.45;99751.49;109035;1277;23078;-77
2021/12/09 09:04:37;;;;;;;144.70;94.20;;;;;;;-1.73;76.40;99753.10;108875;1277;22734;-75
2021/12/09 09:07:08;;;;;;;336.40;212.20;;;;;;;-1.76;76.27;99753.97;108712;1280;21976;-76
2021/12/09 09:09:39;;;;;;;201.10;98.10;;;;;;;-1.77;76.31;99751.77;108535;1281;22178;-76
2021/12/09 09:12:14;;;;;;;150.70;84.80;;;;;;;-1.76;76.42;99756.77;108189;1284;22284;-75
2021/12/09 09:14:43;;;;;;;155.60;85.80;;;;;;;-1.72;76.49;99763.52;108359;1284;23615;-76
2021/12/09 09:17:16;;;;;;;136.90;77.40;;;;;;;-1.64;76.57;99757.30;108415;1284;23606;-77
2021/12/09 09:19:46;;;;;;;121.00;67.00;;;;;;;-1.56;76.61;99752.64;108286;1284;201737;-76
2021/12/09 09:22:17;;;;;;;104.00;66.20;;;;;;;-1.50;76.57;99751.20;108495;1284;23186;-76
2021/12/09 09:24:47;;;;;;;122.70;69.50;;;;;;;-1.48;76.35;99748.27;108408;1285;24327;-76
2021/12/09 09:27:19;;;;;;;123.20;73.30;;;;;;;-1.46;76.35;99751.20;108247;1284;22088;-77
2021/12/09 09:29:48;;;;;;;100.00;64.20;;;;;;;-1.40;76.25;99751.36;108085;1284;24361;-76
2021/12/09 09:32:18;;;;;;;109.70;63.00;;;;;;;-1.43;75.90;99749.98;108634;1281;23595;-76
2021/12/09 09:34:47;;;;;;;83.20;57.90;;;;;;;-1.47;75.72;99746.77;108421;1284;22494;-77
2021/12/09 09:37:21;;;;;;;93.50;60.50;;;;;;;-1.50;75.82;99739.21;108404;1284;23606;-79
2021/12/09 09:39:53;;;;;;;97.80;63.40;;;;;;;-1.49;75.94;99735.89;108382;1285;23611;-76
2021/12/09 09:45:24;;;;;;;87.00;59.30;;;;;;;-1.35;76.03;99742.88;108182;1287;23778;-78
2021/12/09 09:47:54;;;;;;;98.40;62.80;;;;;;;-1.33;75.88;99748.13;108495;1281;23646;-78
2021/12/09 09:50:28;;;;;;;90.30;58.10;;;;;;;-1.31;75.85;99740.17;108399;1282;24451;-77
2021/12/09 09:52:59;;;;;;;178.30;103.30;;;;;;;-1.28;75.75;99733.41;108858;1274;22195;-76
2021/12/09 09:55:34;;;;;;;162.60;112.00;;;;;;;-1.27;75.71;99727.12;108946;1275;23698;-75
2021/12/09 09:58:08;;;;;;;120.80;70.30;;;;;;;-1.26;75.64;99725.48;109070;1275;21972;-78
2021/12/09 10:00:40;;;;;;;163.20;88.30;;;;;;;-1.25;75.50;99718.88;108922;1277;22008;-77
2021/12/09 10:03:16;;;;;;;95.20;64.90;;;;;;;-1.28;75.30;99712.66;108585;1282;23740;-75
2021/12/09 10:05:51;;;;;;;81.30;54.40;;;;;;;-1.34;75.09;99718.44;108410;1283;23043;-74
2021/12/09 10:08:20;;;;;;;96.20;64.40;;;;;;;-1.38;75.17;99716.32;108429;1282;22860;-76
2021/12/09 10:10:52;;;;;;;85.60;60.80;;;;;;;-1.37;75.39;99721.05;108443;1282;23651;-76
2021/12/09 10:13:31;;;;;;;96.00;66.70;;;;;;;-1.32;75.57;99719.67;108557;1281;22005;-76
2021/12/09 10:16:05;;;;;;;91.10;60.90;;;;;;;-1.27;75.41;99724.02;108526;1282;21992;-73
2021/12/09 10:18:42;;;;;;;84.70;57.80;;;;;;;-1.26;75.35;99718.05;108327;1283;23045;-74
2021/12/09 10:21:31;;;;;;;98.00;62.80;;;;;;;-1.25;75.23;99712.30;108394;1283;21994;-74
2021/12/09 10:24:07;;;;;;;89.80;57.90;;;;;;;-1.25;75.24;99706.27;108399;1285;23593;-76
2021/12/09 10:26:36;;;;;;;84.10;55.60;;;;;;;-1.27;75.08;99700.19;108347;1283;23065;-75
2021/12/09 10:29:31;;;;;;;97.40;63.00;;;;;;;-1.27;75.21;99696.85;108895;1276;22115;-75
2021/12/09 10:32:09;;;;;;;92.10;60.00;;;;;;;-1.21;75.40;99696.09;108910;1275;22071;-76
2021/12/09 10:34:48;;;;;;;77.60;52.70;;;;;;;-1.13;75.52;99697.27;108866;1275;22452;-76
2021/12/09 10:37:29;;;;;;;86.00;57.70;;;;;;;-1.07;75.23;99692.86;108935;1275;22082;-76
2021/12/09 10:40:12;;;;;;;81.90;54.80;;;;;;;-1.05;75.13;99694.80;108768;1275;21988;-75
2021/12/09 10:42:54;;;;;;;85.40;58.60;;;;;;;-1.03;74.96;99702.45;108849;1276;21967;-74
2021/12/09 10:45:32;;;;;;;81.50;58.90;;;;;;;-1.02;74.99;99700.61;108822;1275;22925;-74
2021/12/09 10:53:47;;;;;;;78.80;56.70;;;;;;;-0.87;74.95;99707.88;108655;1281;21987;-75
2021/12/09 10:56:34;;;;;;;83.60;60.20;;;;;;;-0.85;74.69;99712.24;108391;1285;22759;-76
2021/12/09 10:59:05;;;;;;;88.10;61.70;;;;;;;-0.86;74.52;99709.52;108232;1285;21984;-75
2021/12/09 11:01:35;;;;;;;81.50;57.00;;;;;;;-0.88;74.35;99704.46;107739;1291;24159;-75
2021/12/09 11:04:09;;;;;;;81.50;59.10;;;;;;;-0.91;74.16;99694.84;107292;1295;22036;-75
2021/12/09 11:06:39;;;;;;;92.80;62.20;;;;;;;-0.96;74.12;99685.67;107663;1295;22002;-76
2021/12/09 11:09:12;;;;;;;96.70;61.50;;;;;;;-1.02;73.96;99683.20;106951;1297;22023;-75
2021/12/09 11:11:47;;;;;;;90.80;57.60;;;;;;;-1.11;74.02;99690.95;107247;1298;22031;-76
2021/12/09 11:14:21;;;;;;;90.40;60.40;;;;;;;-1.12;74.24;99689.60;107635;1292;22005;-76
2021/12/09 11:17:03;;;;;;;94.30;61.70;;;;;;;-1.10;74.26;99686.34;107670;1292;23845;-75
2021/12/09 11:22:10;;;;;;;94.40;65.60;;;;;;;-1.08;74.46;99674.28;108269;1282;23136;-76
2021/12/09 11:24:46;;;;;;;82.30;54.30;;;;;;;-1.02;74.50;99681.61;108368;1284;21984;-76
2021/12/09 11:27:23;;;;;;;78.00;55.00;;;;;;;-1.04;74.33;99676.10;108571;1281;23625;-74
2021/12/09 11:30:06;;;;;;;78.60;54.40;;;;;;;-1.06;74.35;99670.69;108629;1281;23160;-75
2021/12/09 11:35:40;;;;;;;79.80;56.20;;;;;;;-1.06;74.37;99660.48;108679;1282;21990;-81
2021/12/09 11:39:05;;;;;;;79.40;55.90;;;;;;;-1.06;74.47;99663.43;108365;1281;22745;-77
2021/12/09 11:41:04;;;;;;;82.50;58.70;;;;;;;-0.98;74.68;99660.41;108460;1282;23589;-76
2021/12/09 11:43:33;;;;;;;99.90;69.40;;;;;;;-0.89;74.79;99654.42;108416;1285;22014;-77
2021/12/09 11:46:03;;;;;;;145.20;103.70;;;;;;;-0.85;74.41;99653.41;108522;1282;22054;-76
2021/12/09 11:48:32;;;;;;;109.90;70.10;;;;;;;-0.89;74.17;99646.44;108471;1281;22019;-77
2021/12/09 11:51:02;;;;;;;93.10;63.80;;;;;;;-0.87;74.28;99645.64;108411;1281;21984;-77
2021/12/09 11:53:37;;;;;;;83.00;58.60;;;;;;;-0.85;74.26;99637.52;108513;1282;22016;-77
2021/12/09 11:56:20;;;;;;;87.90;61.10;;;;;;;-0.85;74.10;99626.35;108442;1282;23701;-77
2021/12/09 12:11:43;;;;;;;;;;;;;;;-0.91;74.05;99622.29;107744;1292;23601;-75